Time;durP1;ratioP1;P1;durP2;ratioP2;P2;SDS_P1;SDS_P2;PMS_P1;PMS_P2;Temp;Humidity;BMP_temperature;BMP_pressure;BME280_temperature;BME280_humidity;BME280_pressure;Samples;Min_cycle;Max_cycle;Signal;HPM_P1;HPM_P2
2022/07/13 00:00:28;;;;;;;12.50;5.30;;;;;;;22.96;93.40;101764.63;5049549;28;20059;-70
2022/07/13 00:02:54;;;;;;;12.13;5.05;;;;;;;22.91;93.27;101749.06;5055726;28;20064;-72
2022/07/13 00:05:22;;;;;;;10.88;4.78;;;;;;;22.90;92.72;101758.78;5052741;28;20887;-69
2022/07/13 00:07:48;;;;;;;10.10;5.45;;;;;;;22.93;92.12;101760.69;5055534;28;20053;-71
2022/07/13 00:10:15;;;;;;;10.23;5.03;;;;;;;22.92;93.27;101759.13;5055769;28;20048;-73
2022/07/13 00:12:42;;;;;;;9.55;5.15;;;;;;;22.92;93.48;101744.22;5052973;28;20486;-68
2022/07/13 00:15:09;;;;;;;11.13;5.28;;;;;;;22.90;93.70;101739.03;5047975;28;20044;-71
2022/07/13 00:17:36;;;;;;;12.45;5.22;;;;;;;22.92;94.36;101741.38;5050294;28;20790;-70
2022/07/13 00:20:03;;;;;;;11.52;4.90;;;;;;;22.91;94.02;101739.81;5053086;28;20109;-70
2022/07/13 00:22:29;;;;;;;10.50;4.57;;;;;;;22.92;94.75;101733.72;5051873;28;20055;-71
2022/07/13 00:24:56;;;;;;;10.18;4.93;;;;;;;22.91;95.40;101734.94;5051815;28;20055;-72
2022/07/13 00:27:22;;;;;;;9.93;4.35;;;;;;;22.90;96.27;101747.50;5056637;28;20137;-70
2022/07/13 00:29:49;;;;;;;10.10;6.05;;;;;;;22.89;96.10;101745.91;5056109;28;20473;-72
2022/07/13 00:32:16;;;;;;;11.55;5.60;;;;;;;22.84;96.63;101748.53;5046387;28;20045;-70
2022/07/13 00:34:42;;;;;;;11.68;5.65;;;;;;;22.79;96.46;101747.09;5043934;28;20841;-70
2022/07/13 00:37:09;;;;;;;16.85;5.65;;;;;;;22.78;96.21;101745.53;5053554;28;20048;-72
2022/07/13 00:39:35;;;;;;;10.15;5.38;;;;;;;22.81;95.53;101747.41;5052648;28;20071;-72
2022/07/13 00:42:02;;;;;;;10.77;4.85;;;;;;;22.81;95.88;101738.94;5054130;28;20147;-72
2022/07/13 00:44:29;;;;;;;11.50;5.65;;;;;;;22.81;96.97;101747.41;5043243;28;20067;-70
2022/07/13 00:46:55;;;;;;;11.35;5.25;;;;;;;22.80;100.00;101745.84;5054051;28;20048;-68
2022/07/13 00:49:22;;;;;;;18.15;6.15;;;;;;;22.79;100.00;101752.72;5047415;28;20051;-72
2022/07/13 00:51:49;;;;;;;16.92;6.47;;;;;;;22.78;100.00;101763.22;5047094;28;20096;-70
2022/07/13 00:54:19;;;;;;;12.85;6.28;;;;;;;22.71;100.00;101771.13;5059975;28;20055;-70
2022/07/13 00:56:47;;;;;;;12.70;5.90;;;;;;;22.72;100.00;101764.25;5065984;28;20131;-69
2022/07/13 00:59:14;;;;;;;14.13;6.40;;;;;;;22.68;100.00;101763.59;5057647;28;20083;-68
2022/07/13 01:01:41;;;;;;;11.15;5.47;;;;;;;22.61;100.00;101758.97;5058417;28;20037;-68
2022/07/13 01:04:08;;;;;;;13.55;5.75;;;;;;;22.52;100.00;101758.88;5057057;28;20156;-69
2022/07/13 01:06:35;;;;;;;14.93;6.00;;;;;;;22.43;100.00;101743.88;5066457;28;20052;-70
2022/07/13 01:09:02;;;;;;;15.40;6.57;;;;;;;22.38;100.00;101741.63;5060971;28;20048;-67
2022/07/13 01:11:29;;;;;;;17.45;6.25;;;;;;;22.33;100.00;101740.16;5066756;28;20137;-69
2022/07/13 01:13:57;;;;;;;12.18;6.40;;;;;;;22.30;100.00;101740.28;5067737;28;20056;-68
2022/07/13 01:16:24;;;;;;;19.08;7.75;;;;;;;22.23;100.00;101738.50;5062208;28;20148;-67
2022/07/13 01:18:51;;;;;;;14.15;7.03;;;;;;;22.22;100.00;101745.38;5065960;28;20066;-68
2022/07/13 01:21:19;;;;;;;15.32;7.22;;;;;;;22.16;100.00;101727.44;5054870;28;20113;-70
2022/07/13 01:23:46;;;;;;;11.13;6.22;;;;;;;22.10;100.00;101729.25;5052901;28;20060;-68
2022/07/13 01:26:13;;;;;;;15.82;7.88;;;;;;;21.99;100.00;101723.19;5065414;28;20044;-67
2022/07/13 01:28:39;;;;;;;16.73;8.23;;;;;;;21.98;100.00;101727.25;5057460;28;20052;-70
2022/07/13 01:31:06;;;;;;;14.80;7.40;;;;;;;21.97;100.00;101739.75;5058215;28;20089;-68
2022/07/13 01:33:33;;;;;;;15.60;7.80;;;;;;;21.94;100.00;101735.00;5061133;28;20147;-67
2022/07/13 01:36:00;;;;;;;16.20;7.65;;;;;;;21.84;100.00;101738.94;5069434;28;20054;-68
2022/07/13 01:38:26;;;;;;;18.17;8.77;;;;;;;21.75;100.00;101736.03;5068625;28;20045;-67
2022/07/13 01:40:53;;;;;;;15.85;8.27;;;;;;;21.65;100.00;101731.47;5052490;28;20084;-69
2022/07/13 01:43:27;;;;;;;17.38;9.05;;;;;;;21.61;100.00;101719.53;5066885;28;20179;-69
2022/07/13 01:45:53;;;;;;;18.48;9.20;;;;;;;21.64;100.00;101717.84;5058617;28;20045;-68
2022/07/13 01:48:20;;;;;;;16.17;8.98;;;;;;;21.60;100.00;101711.53;5061595;28;20493;-69
2022/07/13 01:50:46;;;;;;;18.85;9.70;;;;;;;21.56;100.00;101710.88;5066116;28;20168;-68
2022/07/13 01:53:13;;;;;;;16.73;8.80;;;;;;;21.49;100.00;101708.22;5059343;28;20058;-69
2022/07/13 01:55:39;;;;;;;18.40;8.48;;;;;;;21.41;100.00;101701.25;5066593;28;20139;-71
2022/07/13 01:58:06;;;;;;;16.13;9.13;;;;;;;21.44;100.00;101694.72;5057618;28;20378;-68
2022/07/13 02:00:33;;;;;;;17.02;9.07;;;;;;;21.51;100.00;101692.50;5052739;28;20135;-68
2022/07/13 02:02:59;;;;;;;17.33;8.93;;;;;;;21.57;100.00;101685.03;5056270;28;20052;-67
2022/07/13 02:05:27;;;;;;;16.85;8.50;;;;;;;21.61;100.00;101670.84;5066918;28;20531;-68
2022/07/13 02:07:56;;;;;;;17.45;8.23;;;;;;;21.64;100.00;101661.50;5061570;28;20474;-68
2022/07/13 02:10:34;;;;;;;18.05;9.10;;;;;;;21.65;100.00;101665.91;5052792;28;20525;-67
2022/07/13 02:13:07;;;;;;;19.00;9.75;;;;;;;21.64;100.00;101669.97;5058996;28;20047;-67
2022/07/13 02:15:35;;;;;;;17.02;9.20;;;;;;;21.59;100.00;101654.41;5066981;28;20048;-67
2022/07/13 02:18:01;;;;;;;17.13;7.78;;;;;;;21.60;100.00;101658.78;5066069;28;20079;-66
2022/07/13 02:20:28;;;;;;;19.33;10.15;;;;;;;21.59;100.00;101664.88;5067311;28;20127;-68
2022/07/13 02:22:55;;;;;;;17.90;9.63;;;;;;;21.61;100.00;101671.66;5058503;28;20045;-68
2022/07/13 02:25:22;;;;;;;17.58;9.82;;;;;;;21.68;100.00;101667.81;5060059;28;20048;-65
2022/07/13 02:27:49;;;;;;;17.20;9.32;;;;;;;21.61;100.00;101662.41;5060493;28;20075;-70
2022/07/13 02:30:15;;;;;;;17.23;9.80;;;;;;;21.61;100.00;101656.78;5057532;28;20072;-67
2022/07/13 02:32:43;;;;;;;18.33;9.98;;;;;;;21.60;100.00;101649.56;5046328;28;20045;-68
2022/07/13 02:35:11;;;;;;;19.02;9.48;;;;;;;21.62;100.00;101647.88;5058062;28;20044;-67
2022/07/13 02:37:38;;;;;;;19.27;9.35;;;;;;;21.64;100.00;101655.88;5062173;28;20084;-66
2022/07/13 02:40:06;;;;;;;18.17;8.70;;;;;;;21.64;100.00;101661.50;5061886;28;20091;-70
2022/07/13 02:42:33;;;;;;;16.45;10.30;;;;;;;21.60;100.00;101652.41;5050739;28;20124;-69
2022/07/13 02:45:00;;;;;;;18.05;9.65;;;;;;;21.62;100.00;101647.88;5063265;28;20048;-69
2022/07/13 02:47:26;;;;;;;17.50;8.98;;;;;;;21.61;100.00;101646.31;5059127;28;20193;-68
2022/07/13 02:49:53;;;;;;;17.73;9.10;;;;;;;21.62;100.00;101653.50;5061869;28;20057;-68
2022/07/13 02:52:19;;;;;;;15.40;8.65;;;;;;;21.58;100.00;101646.41;5061653;28;20048;-70
2022/07/13 02:54:46;;;;;;;18.35;10.20;;;;;;;21.51;100.00;101644.63;5063221;28;20064;-68
2022/07/13 02:57:12;;;;;;;20.88;10.00;;;;;;;21.52;100.00;101637.75;5063710;28;20072;-69
2022/07/13 02:59:39;;;;;;;17.38;9.25;;;;;;;21.56;100.00;101634.81;5055712;28;20135;-70
2022/07/13 03:02:06;;;;;;;18.33;10.55;;;;;;;21.58;100.00;101629.50;5054833;28;20053;-71
2022/07/13 03:04:34;;;;;;;22.30;9.57;;;;;;;21.59;100.00;101628.28;5055325;28;20045;-67
2022/07/13 03:07:02;;;;;;;19.50;9.77;;;;;;;21.53;100.00;101627.28;5058973;28;20527;-68
2022/07/13 03:09:29;;;;;;;22.42;9.60;;;;;;;21.47;100.00;101618.59;5064165;28;20071;-68
2022/07/13 03:11:55;;;;;;;21.35;9.70;;;;;;;21.39;100.00;101599.56;5057309;28;20093;-68
2022/07/13 03:14:22;;;;;;;17.08;9.88;;;;;;;21.42;100.00;101587.38;5064075;28;20128;-71
2022/07/13 03:16:49;;;;;;;20.23;10.02;;;;;;;21.49;100.00;101598.41;5060584;28;20627;-68
2022/07/13 03:19:16;;;;;;;17.83;10.02;;;;;;;21.52;100.00;101597.53;5063565;28;20056;-69
2022/07/13 03:21:42;;;;;;;18.27;10.32;;;;;;;21.54;100.00;101604.31;5049971;28;20135;-68
2022/07/13 03:24:09;;;;;;;19.17;10.27;;;;;;;21.58;100.00;101607.00;5056833;28;20044;-68
2022/07/13 03:26:35;;;;;;;15.98;9.52;;;;;;;21.59;100.00;101603.72;5063611;28;20052;-68
2022/07/13 03:29:02;;;;;;;17.40;9.38;;;;;;;21.65;100.00;101607.56;5063722;28;20044;-69
2022/07/13 03:31:29;;;;;;;15.23;8.48;;;;;;;21.65;100.00;101598.31;5062847;28;20048;-68
2022/07/13 03:33:55;;;;;;;16.27;9.07;;;;;;;21.61;100.00;101606.88;5061784;28;20131;-67
2022/07/13 03:36:22;;;;;;;17.00;10.13;;;;;;;21.63;100.00;101609.25;5055564;28;20053;-67
2022/07/13 03:38:48;;;;;;;17.20;9.55;;;;;;;21.64;100.00;101605.19;5058532;28;20087;-69
2022/07/13 03:41:15;;;;;;;20.10;10.18;;;;;;;21.63;100.00;101598.75;5056328;28;20048;-69
2022/07/13 03:43:41;;;;;;;18.67;9.15;;;;;;;21.63;100.00;101609.25;5061035;28;20455;-67
2022/07/13 03:46:09;;;;;;;18.63;9.88;;;;;;;21.60;100.00;101610.16;5065121;28;20136;-70
2022/07/13 03:48:36;;;;;;;19.08;10.00;;;;;;;21.60;100.00;101601.69;5055154;28;20506;-67
2022/07/13 03:51:02;;;;;;;16.98;10.00;;;;;;;21.57;100.00;101599.78;5055186;28;20075;-67
2022/07/13 03:53:29;;;;;;;18.60;10.68;;;;;;;21.56;100.00;101607.44;5062669;28;20071;-70
2022/07/13 03:55:55;;;;;;;18.10;10.68;;;;;;;21.58;100.00;101609.81;5051630;28;20059;-68
2022/07/13 03:58:22;;;;;;;19.45;11.60;;;;;;;21.59;100.00;101608.56;5064746;28;20047;-69
2022/07/13 04:00:48;;;;;;;18.75;10.10;;;;;;;21.60;100.00;101610.16;5064557;28;20109;-69
2022/07/13 04:03:15;;;;;;;18.48;10.30;;;;;;;21.60;100.00;101610.16;5054068;28;20044;-70
2022/07/13 04:05:42;;;;;;;19.60;9.73;;;;;;;21.57;100.00;101603.38;5063636;28;20048;-68
2022/07/13 04:08:08;;;;;;;18.67;10.13;;;;;;;21.57;100.00;101603.38;5062985;28;20076;-70
2022/07/13 04:10:35;;;;;;;17.85;10.77;;;;;;;21.56;100.00;101606.66;5057716;28;20103;-68
2022/07/13 04:13:01;;;;;;;19.17;10.57;;;;;;;21.54;100.00;101604.31;5058725;28;20064;-71
2022/07/13 04:15:36;;;;;;;19.98;9.48;;;;;;;21.56;100.00;101603.84;5064488;28;20175;-67
2022/07/13 04:18:03;;;;;;;16.95;9.30;;;;;;;21.56;100.00;101603.84;5054814;28;20131;-68
2022/07/13 04:20:29;;;;;;;18.17;9.52;;;;;;;21.55;100.00;101596.63;5057807;28;20495;-70
2022/07/13 04:22:56;;;;;;;18.23;9.48;;;;;;;21.55;100.00;101597.41;5060363;28;20051;-68
2022/07/13 04:25:24;;;;;;;16.98;9.63;;;;;;;21.54;100.00;101600.69;5069556;28;20052;-69
2022/07/13 04:27:50;;;;;;;17.85;9.98;;;;;;;21.55;100.00;101594.59;5068252;28;20049;-68
2022/07/13 04:30:17;;;;;;;19.92;10.15;;;;;;;21.56;100.00;101592.59;5068336;28;20724;-68
2022/07/13 04:32:44;;;;;;;17.92;10.07;;;;;;;21.57;100.00;101591.34;5062087;28;20489;-70
2022/07/13 04:35:11;;;;;;;18.55;9.35;;;;;;;21.58;100.00;101588.06;5058089;28;20108;-68
2022/07/13 04:37:37;;;;;;;21.58;10.52;;;;;;;21.61;100.00;101590.00;5061875;28;20210;-67
2022/07/13 04:40:05;;;;;;;18.13;10.13;;;;;;;21.64;100.00;101593.91;5051677;28;20468;-69
2022/07/13 04:42:31;;;;;;;24.23;10.52;;;;;;;21.67;100.00;101593.03;5061024;28;20094;-66
2022/07/13 04:44:58;;;;;;;21.25;10.50;;;;;;;21.72;100.00;101587.63;5068478;28;20155;-70
2022/07/13 04:47:24;;;;;;;19.25;12.02;;;;;;;21.76;100.00;101587.50;5059984;28;20052;-72
2022/07/13 04:49:51;;;;;;;19.08;11.30;;;;;;;21.77;100.00;101592.69;5053439;28;20485;-68
2022/07/13 04:52:18;;;;;;;19.73;10.80;;;;;;;21.81;100.00;101584.13;5059173;28;20114;-70
2022/07/13 04:54:44;;;;;;;16.42;9.77;;;;;;;21.86;100.00;101577.91;5061524;28;20053;-70
2022/07/13 04:57:11;;;;;;;19.73;10.75;;;;;;;21.89;100.00;101554.47;5062704;28;20044;-69
2022/07/13 04:59:37;;;;;;;20.88;10.63;;;;;;;21.91;100.00;101561.19;5060953;28;20052;-70
2022/07/13 05:02:04;;;;;;;18.58;10.05;;;;;;;21.95;100.00;101555.47;5067643;28;20083;-69
2022/07/13 05:04:31;;;;;;;20.45;10.63;;;;;;;21.99;100.00;101554.09;5058974;28;20037;-70
2022/07/13 05:06:57;;;;;;;19.40;9.65;;;;;;;22.02;100.00;101543.94;5068169;28;20090;-68
2022/07/13 05:09:24;;;;;;;16.23;9.13;;;;;;;22.05;100.00;101534.56;5064543;28;20080;-68
2022/07/13 05:11:52;;;;;;;16.40;9.77;;;;;;;22.07;100.00;101543.38;5059255;28;20044;-68
2022/07/13 05:14:18;;;;;;;19.95;9.80;;;;;;;22.06;100.00;101548.22;5063212;28;20052;-71
2022/07/13 05:16:45;;;;;;;18.98;9.90;;;;;;;22.08;100.00;101554.19;5056762;28;20076;-69
2022/07/13 05:19:11;;;;;;;19.00;9.80;;;;;;;22.14;100.00;101551.56;5063706;28;20052;-72
2022/07/13 05:21:38;;;;;;;16.85;9.48;;;;;;;22.22;100.00;101552.88;5058917;28;20052;-70
2022/07/13 05:24:05;;;;;;;17.98;10.00;;;;;;;22.26;100.00;101550.72;5065436;28;20135;-69
2022/07/13 05:26:31;;;;;;;19.23;10.43;;;;;;;22.33;100.00;101554.06;5059810;28;20048;-71
2022/07/13 05:28:58;;;;;;;17.08;9.65;;;;;;;22.41;100.00;101544.09;5064448;28;20080;-70
2022/07/13 05:31:25;;;;;;;18.70;10.00;;;;;;;22.47;100.00;101555.56;5064433;28;20131;-69
2022/07/13 05:33:51;;;;;;;23.40;9.77;;;;;;;22.56;100.00;101544.41;5053248;28;20658;-69
2022/07/13 05:36:18;;;;;;;20.95;10.20;;;;;;;22.60;100.00;101543.03;5069329;28;20135;-70
2022/07/13 05:38:44;;;;;;;20.85;10.52;;;;;;;22.73;100.00;101540.94;5067771;28;20075;-69
2022/07/13 05:41:11;;;;;;;18.52;9.88;;;;;;;22.80;100.00;101542.69;5066742;28;20076;-67
2022/07/13 05:43:38;;;;;;;16.70;9.27;;;;;;;22.85;100.00;101544.91;5060310;28;20061;-68
2022/07/13 05:46:05;;;;;;;19.63;10.68;;;;;;;22.96;100.00;101538.84;5062072;28;20552;-69
2022/07/13 05:48:31;;;;;;;20.52;9.27;;;;;;;23.05;100.00;101550.94;5059503;28;20052;-68
2022/07/13 05:50:58;;;;;;;16.70;9.13;;;;;;;23.15;100.00;101543.34;5059995;28;20049;-72
2022/07/13 05:53:45;;;;;;;14.70;7.78;;;;;;;23.20;100.00;101529.38;5054616;28;20052;-69
2022/07/13 05:56:13;;;;;;;15.00;6.93;;;;;;;23.30;100.00;101539.50;5061676;28;20050;-68
2022/07/13 05:58:40;;;;;;;14.85;7.50;;;;;;;23.34;100.00;101540.13;5060586;28;20678;-68
2022/07/13 06:01:07;;;;;;;14.23;6.57;;;;;;;23.38;100.00;101534.34;5068037;28;20660;-67
2022/07/13 06:03:33;;;;;;;18.00;6.35;;;;;;;23.38;100.00;101535.13;5067659;28;20055;-69
2022/07/13 06:06:00;;;;;;;15.75;5.95;;;;;;;23.45;100.00;101525.59;5048537;28;20053;-68
2022/07/13 06:08:26;;;;;;;21.02;6.25;;;;;;;23.51;100.00;101521.69;5062022;28;20137;-70
2022/07/13 06:10:53;;;;;;;17.08;6.85;;;;;;;23.67;100.00;101524.22;5068695;28;20727;-69
2022/07/13 06:13:25;;;;;;;18.60;5.82;;;;;;;23.82;100.00;101522.34;5065195;28;20048;-67
2022/07/13 06:15:52;;;;;;;14.30;5.25;;;;;;;23.89;100.00;101518.44;5068905;28;20139;-67
2022/07/13 06:18:19;;;;;;;19.30;4.70;;;;;;;23.91;100.00;101513.91;5066582;28;20545;-72
2022/07/13 06:20:45;;;;;;;12.73;4.75;;;;;;;24.03;100.00;101521.44;5060151;28;20060;-68
2022/07/13 06:23:14;;;;;;;13.13;5.35;;;;;;;24.13;100.00;101522.25;5063307;28;20037;-67
2022/07/13 06:25:41;;;;;;;16.00;4.90;;;;;;;24.22;100.00;101520.22;5079162;28;20087;-67
2022/07/13 06:28:08;;;;;;;11.23;4.03;;;;;;;24.34;100.00;101529.78;5065558;28;20173;-67
2022/07/13 06:30:35;;;;;;;14.55;4.13;;;;;;;24.40;93.34;101531.50;5062226;28;20094;-70
2022/07/13 06:33:02;;;;;;;15.23;4.10;;;;;;;24.57;94.64;101529.91;5060605;28;20055;-68
2022/07/13 06:35:30;;;;;;;22.27;5.10;;;;;;;24.78;95.72;101528.94;5053521;28;20219;-66
2022/07/13 06:37:56;;;;;;;14.40;3.63;;;;;;;24.90;93.31;101530.00;5063042;28;20491;-68
2022/07/13 06:40:23;;;;;;;15.20;4.43;;;;;;;25.02;92.53;101520.53;5060293;28;20052;-64
2022/07/13 06:42:50;;;;;;;20.08;4.60;;;;;;;25.03;82.96;101528.56;5063398;28;20055;-66
2022/07/13 06:45:17;;;;;;;8.85;3.13;;;;;;;25.13;81.95;101529.28;5058077;28;20415;-69
2022/07/13 06:47:44;;;;;;;9.90;3.60;;;;;;;25.23;81.68;101532.88;5066133;28;20135;-67
2022/07/13 06:50:11;;;;;;;9.05;4.03;;;;;;;25.27;79.93;101525.78;5058730;28;20048;-67
2022/07/13 06:52:37;;;;;;;10.52;3.30;;;;;;;25.36;76.86;101527.81;5053783;28;20212;-64
2022/07/13 06:55:04;;;;;;;9.75;3.00;;;;;;;25.43;76.34;101527.44;5066084;28;20074;-68
2022/07/13 06:57:31;;;;;;;9.00;2.97;;;;;;;25.50;76.04;101527.09;5057007;28;20058;-67
2022/07/13 06:59:57;;;;;;;11.20;3.00;;;;;;;25.56;71.82;101525.19;5059611;28;20049;-67
2022/07/13 07:02:24;;;;;;;6.53;2.75;;;;;;;25.67;70.79;101531.09;5060615;28;20095;-69
2022/07/13 07:04:51;;;;;;;6.45;2.83;;;;;;;25.69;69.51;101534.25;5059650;28;20053;-67
2022/07/13 07:07:17;;;;;;;6.93;2.42;;;;;;;25.74;68.92;101539.25;5055555;28;20508;-67
2022/07/13 07:09:44;;;;;;;6.65;3.03;;;;;;;25.88;69.97;101535.69;5062196;28;20885;-68
2022/07/13 07:12:11;;;;;;;5.10;1.92;;;;;;;25.85;63.71;101528.16;5062989;28;20054;-70
2022/07/13 07:14:37;;;;;;;7.22;2.63;;;;;;;25.99;65.15;101527.44;5058964;28;20127;-67
2022/07/13 07:17:04;;;;;;;10.63;3.20;;;;;;;26.03;61.13;101533.72;5063602;28;20097;-66
2022/07/13 07:19:31;;;;;;;6.57;2.70;;;;;;;26.18;60.90;101517.50;5055232;28;20052;-69
2022/07/13 07:21:57;;;;;;;6.57;3.05;;;;;;;26.28;58.41;101524.66;5057296;28;20049;-67
2022/07/13 07:24:24;;;;;;;6.45;2.30;;;;;;;26.35;56.70;101525.06;5061433;28;20132;-68
2022/07/13 07:26:51;;;;;;;4.40;2.13;;;;;;;26.41;55.32;101525.19;5063861;28;20389;-69
2022/07/13 07:29:18;;;;;;;5.25;2.70;;;;;;;26.55;56.26;101521.56;5051454;28;20045;-67
2022/07/13 07:31:45;;;;;;;7.53;2.00;;;;;;;26.54;54.10;101520.00;5063172;28;20088;-68
2022/07/13 07:34:12;;;;;;;8.52;2.88;;;;;;;26.59;54.83;101520.09;5065066;28;20067;-66
2022/07/13 07:36:38;;;;;;;11.50;3.30;;;;;;;26.63;55.22;101517.13;5063002;28;20135;-66
2022/07/13 07:39:06;;;;;;;4.13;2.35;;;;;;;26.62;53.86;101516.31;5064362;28;20136;-67
2022/07/13 07:41:33;;;;;;;10.68;3.40;;;;;;;26.62;54.58;101522.00;5054813;28;20469;-68
2022/07/13 07:44:00;;;;;;;6.18;2.30;;;;;;;26.59;53.45;101528.63;5058094;28;20051;-68
2022/07/13 07:46:27;;;;;;;7.75;3.13;;;;;;;26.79;52.88;101519.44;5055218;28;20209;-65
2022/07/13 07:48:55;;;;;;;10.68;3.10;;;;;;;26.92;52.94;101505.72;5063078;28;20071;-66
2022/07/13 07:51:22;;;;;;;6.00;2.85;;;;;;;26.95;52.99;101507.59;5059501;28;20080;-70
2022/07/13 07:53:48;;;;;;;6.15;2.97;;;;;;;27.02;51.75;101504.34;5058405;28;20079;-73
2022/07/13 07:56:15;;;;;;;8.43;3.70;;;;;;;27.22;52.09;101510.09;5062792;28;20717;-69
2022/07/13 07:58:41;;;;;;;11.27;3.00;;;;;;;27.24;50.47;101510.41;5063654;28;20052;-68
2022/07/13 08:01:08;;;;;;;8.43;3.45;;;;;;;27.34;51.63;101506.94;5064203;28;20049;-70
2022/07/13 08:03:35;;;;;;;7.72;2.80;;;;;;;27.37;51.04;101514.47;5056771;28;20052;-72
2022/07/13 08:06:02;;;;;;;4.05;1.65;;;;;;;27.17;48.18;101508.72;5058826;28;20161;-67
2022/07/13 08:08:29;;;;;;;12.85;3.38;;;;;;;27.38;50.09;101504.69;5063218;28;20053;-72
2022/07/13 08:10:55;;;;;;;1.85;1.05;;;;;;;27.27;49.64;101509.44;5062909;28;20131;-68
2022/07/13 08:13:22;;;;;;;6.35;2.60;;;;;;;27.42;48.95;101502.44;5059134;28;20049;-71
2022/07/13 08:15:49;;;;;;;3.80;1.80;;;;;;;27.27;48.89;101512.28;5047730;28;20056;-71
2022/07/13 08:18:16;;;;;;;8.00;2.95;;;;;;;27.48;49.50;101508.94;5050101;28;20064;-71
2022/07/13 08:21:02;;;;;;;5.65;2.05;;;;;;;27.44;48.23;101518.97;5048454;28;20054;-70
2022/07/13 08:26:14;;;;;;;12.98;3.38;;;;;;;27.70;49.97;101514.16;5052181;28;20098;-70
2022/07/13 08:28:40;;;;;;;6.63;2.53;;;;;;;27.62;46.49;101504.50;5051901;28;20060;-72
2022/07/13 08:31:07;;;;;;;9.23;2.22;;;;;;;27.68;47.07;101507.41;5053901;28;20049;-69
2022/07/13 08:39:04;;;;;;;8.57;2.90;;;;;;;27.94;45.92;101502.63;5056984;28;20716;-72
2022/07/13 08:41:32;;;;;;;5.03;2.22;;;;;;;27.76;45.82;101512.19;5042246;28;20073;-73
2022/07/13 08:44:00;;;;;;;9.13;3.25;;;;;;;28.03;46.39;101508.13;5045302;28;20052;-70
2022/07/13 08:46:27;;;;;;;9.50;3.45;;;;;;;28.10;46.58;101508.50;5050490;28;20051;-73
2022/07/13 08:48:56;;;;;;;9.02;3.08;;;;;;;28.16;46.34;101512.19;5053136;28;20061;-70
2022/07/13 08:51:24;;;;;;;12.50;3.50;;;;;;;28.21;46.45;101520.00;5046848;28;20048;-70
2022/07/13 08:53:51;;;;;;;10.55;3.20;;;;;;;28.19;46.74;101502.66;5054346;28;20045;-71
2022/07/13 08:56:18;;;;;;;10.40;3.03;;;;;;;28.25;46.17;101509.19;5049067;28;20049;-74
2022/07/13 08:58:45;;;;;;;8.18;2.33;;;;;;;28.08;45.52;101499.69;5054410;28;20179;-72
2022/07/13 09:01:14;;;;;;;5.93;1.75;;;;;;;28.16;44.90;101517.09;5048869;28;20200;-71
2022/07/13 09:07:22;;;;;;;12.25;3.63;;;;;;;28.70;44.84;101510.44;5050583;28;20113;-72
2022/07/13 09:09:54;;;;;;;4.18;1.77;;;;;;;28.49;43.23;101498.34;5052566;28;20056;-73
2022/07/13 09:12:37;;;;;;;7.25;1.80;;;;;;;28.55;43.67;101496.31;5048702;28;20044;-71
2022/07/13 09:15:08;;;;;;;9.48;3.30;;;;;;;28.63;44.88;101494.59;5050691;28;20040;-73
2022/07/13 09:17:36;;;;;;;8.10;2.80;;;;;;;28.69;45.55;101498.28;5049503;28;20045;-71
2022/07/13 09:20:12;;;;;;;9.43;3.92;;;;;;;28.86;44.98;101498.41;5048290;28;20073;-71
2022/07/13 09:22:46;;;;;;;11.95;3.50;;;;;;;28.76;44.17;101492.13;5053138;28;20044;-71
2022/07/13 09:25:23;;;;;;;6.85;2.83;;;;;;;28.75;44.72;101490.53;5054673;28;20051;-71
2022/07/13 09:27:50;;;;;;;12.50;2.22;;;;;;;28.70;43.96;101502.69;5056415;28;20088;-71
2022/07/13 09:30:24;;;;;;;10.05;3.10;;;;;;;28.90;44.24;101499.75;5053621;28;20053;-73
2022/07/13 09:32:53;;;;;;;2.60;1.23;;;;;;;28.87;43.98;101497.13;5056231;28;20816;-73
2022/07/13 09:35:21;;;;;;;10.88;3.15;;;;;;;29.11;44.09;101495.53;5056958;28;20053;-75
2022/07/13 09:37:48;;;;;;;9.07;2.80;;;;;;;29.32;44.28;101502.69;5049328;28;20045;-72
2022/07/13 09:40:17;;;;;;;13.70;2.85;;;;;;;29.26;43.64;101504.69;5054747;28;20051;-72
2022/07/13 09:42:45;;;;;;;6.50;1.85;;;;;;;28.92;43.55;101497.16;5050740;28;20755;-73
2022/07/13 09:48:00;;;;;;;6.18;2.80;;;;;;;29.11;43.36;101500.44;5047680;28;20155;-76
2022/07/13 09:50:38;;;;;;;9.20;2.65;;;;;;;29.23;42.89;101499.25;5051703;28;20129;-74
2022/07/13 09:53:23;;;;;;;7.30;2.13;;;;;;;29.36;44.06;101500.34;5042947;28;20047;-73
2022/07/13 09:55:51;;;;;;;8.38;2.13;;;;;;;29.37;43.62;101493.38;5048809;28;20136;-74
2022/07/13 09:58:27;;;;;;;12.63;3.22;;;;;;;29.62;43.36;101495.38;5053684;28;20173;-72
2022/07/13 10:00:56;;;;;;;6.15;2.65;;;;;;;29.79;43.34;101494.66;5053127;28;20147;-73
2022/07/13 10:03:24;;;;;;;9.90;2.80;;;;;;;29.86;43.38;101497.03;5047558;28;20056;-73
2022/07/13 10:05:52;;;;;;;1.27;0.98;;;;;;;29.56;43.52;101488.81;5042489;28;20060;-74
2022/07/13 10:08:19;;;;;;;8.55;3.05;;;;;;;29.82;43.59;101493.66;5050854;28;20074;-72
2022/07/13 10:10:47;;;;;;;5.85;2.60;;;;;;;29.91;42.06;101499.09;5055690;28;20058;-72
2022/07/13 10:13:14;;;;;;;20.17;2.60;;;;;;;29.97;42.22;101494.22;5053854;28;20050;-75
2022/07/13 10:15:41;;;;;;;7.55;3.47;;;;;;;30.21;42.06;101498.22;5051776;28;20059;-72
2022/07/13 10:18:10;;;;;;;12.98;3.40;;;;;;;30.19;41.49;101500.00;5050726;28;20068;-74
2022/07/13 10:20:42;;;;;;;5.18;2.10;;;;;;;29.97;41.87;101503.56;5043568;28;20059;-73
2022/07/13 10:23:10;;;;;;;8.77;2.50;;;;;;;29.94;42.17;101501.72;5033826;28;20053;-72
2022/07/13 10:25:57;;;;;;;2.88;1.27;;;;;;;29.73;42.31;101501.13;5048884;28;20469;-73
2022/07/13 10:28:27;;;;;;;8.30;2.75;;;;;;;29.87;42.75;101498.59;5049755;28;20058;-73
2022/07/13 10:30:54;;;;;;;6.25;2.40;;;;;;;30.02;42.42;101507.72;5044606;28;20740;-72
2022/07/13 10:33:24;;;;;;;4.80;2.05;;;;;;;30.01;42.23;101501.25;5038492;28;20140;-73
2022/07/13 10:35:54;;;;;;;4.28;1.63;;;;;;;30.02;41.63;101497.09;5051356;28;20054;-74
2022/07/13 10:38:26;;;;;;;2.33;1.48;;;;;;;30.18;41.72;101507.03;5046173;28;20057;-75
2022/07/13 10:41:32;;;;;;;2.25;1.10;;;;;;;30.29;41.77;101504.19;5050841;28;20048;-74
2022/07/13 10:44:31;;;;;;;7.77;2.33;;;;;;;30.59;40.36;101506.06;5026694;28;20045;-76
2022/07/13 10:46:58;;;;;;;6.68;2.03;;;;;;;30.32;39.92;101495.38;5026142;28;20139;-73
2022/07/13 10:49:30;;;;;;;7.47;2.28;;;;;;;31.23;40.59;101505.03;5040174;28;20081;-75
2022/07/13 10:55:09;;;;;;;1.33;0.82;;;;;;;31.35;37.39;101500.91;5028549;28;20509;-73
2022/07/13 10:57:42;;;;;;;6.95;1.90;;;;;;;31.39;37.10;101496.44;5012699;28;20045;-77
2022/07/13 11:00:22;;;;;;;1.95;1.40;;;;;;;31.30;37.99;101505.31;5029936;28;20059;-76
2022/07/13 11:02:54;;;;;;;5.72;2.15;;;;;;;31.36;38.33;101496.72;5028375;28;20056;-76
2022/07/13 11:05:26;;;;;;;10.90;2.28;;;;;;;31.47;39.13;101488.91;5031300;28;20053;-73
2022/07/13 11:07:53;;;;;;;7.78;2.00;;;;;;;31.48;38.78;101492.53;5049600;28;20049;-75
2022/07/13 11:10:23;;;;;;;7.93;2.45;;;;;;;31.42;38.67;101483.97;5030279;28;20053;-76
2022/07/13 11:12:54;;;;;;;7.25;2.60;;;;;;;31.37;38.25;101478.25;5031164;28;20045;-76
2022/07/13 11:15:21;;;;;;;7.13;2.13;;;;;;;31.20;38.92;101495.44;5045754;28;20052;-77
2022/07/13 11:17:54;;;;;;;10.55;3.15;;;;;;;31.32;39.51;101487.66;5051394;28;20040;-75
2022/07/13 11:20:21;;;;;;;8.35;3.10;;;;;;;31.28;39.73;101484.28;5053571;28;20071;-78
2022/07/13 11:26:26;;;;;;;9.15;2.67;;;;;;;31.12;40.00;101490.78;5045257;28;20060;-73
2022/07/13 11:29:09;;;;;;;7.20;2.30;;;;;;;30.95;40.22;101490.00;5029787;28;20822;-74
2022/07/13 11:31:37;;;;;;;8.98;2.53;;;;;;;30.94;40.56;101483.50;5051189;28;20055;-76
2022/07/13 11:34:03;;;;;;;5.18;2.45;;;;;;;31.04;40.55;101493.38;5055094;28;20041;-76
2022/07/13 11:36:30;;;;;;;8.68;2.92;;;;;;;31.14;40.95;101491.00;5054802;28;20079;-76
2022/07/13 11:39:00;;;;;;;5.72;2.95;;;;;;;30.97;40.47;101493.91;5051936;28;20142;-75